Time;durP1;ratioP1;P1;durP2;ratioP2;P2;SDS_P1;SDS_P2;PMS_P1;PMS_P2;Temp;Humidity;BMP_temperature;BMP_pressure;BME280_temperature;BME280_humidity;BME280_pressure;Samples;Min_cycle;Max_cycle;Signal;HPM_P1;HPM_P2
2023/01/25 00:00:04;;;;;;;11.05;7.28;;;;;;;;;;8330553;28;20033;-63
2023/01/25 00:04:04;;;;;;;8.68;6.85;;;;;;;;;;8329328;28;20025;-62
2023/01/25 00:08:05;;;;;;;9.00;6.88;;;;;;;;;;8329527;28;20930;-63
2023/01/25 00:12:05;;;;;;;8.57;6.63;;;;;;;;;;8330661;28;20074;-62
2023/01/25 00:16:05;;;;;;;10.15;7.03;;;;;;;;;;8328630;28;20071;-62
2023/01/25 00:20:06;;;;;;;11.27;7.05;;;;;;;;;;8328593;28;20036;-63
2023/01/25 00:24:07;;;;;;;8.93;6.57;;;;;;;;;;8330931;28;20025;-63
2023/01/25 00:28:07;;;;;;;7.65;6.60;;;;;;;;;;8331163;28;20029;-62
2023/01/25 00:32:13;;;;;;;12.27;7.55;;;;;;;;;;8328335;28;20153;-64
2023/01/25 00:36:19;;;;;;;9.30;7.35;;;;;;;;;;8328503;28;20362;-63
2023/01/25 00:40:19;;;;;;;12.02;8.00;;;;;;;;;;8329356;28;20135;-62
2023/01/25 00:44:20;;;;;;;11.60;7.28;;;;;;;;;;8329395;28;20025;-63
2023/01/25 00:48:20;;;;;;;11.35;7.13;;;;;;;;;;8329345;28;20507;-62
2023/01/25 00:52:21;;;;;;;11.43;7.93;;;;;;;;;;8329083;28;20028;-63
2023/01/25 00:56:22;;;;;;;15.02;7.70;;;;;;;;;;8331819;28;20136;-64
2023/01/25 01:00:22;;;;;;;12.48;7.90;;;;;;;;;;8327354;28;20021;-63
2023/01/25 01:04:25;;;;;;;10.77;8.10;;;;;;;;;;8329175;28;20167;-63
2023/01/25 01:08:25;;;;;;;10.85;7.88;;;;;;;;;;8329119;28;20028;-62
2023/01/25 01:12:25;;;;;;;10.57;7.57;;;;;;;;;;8327976;28;20029;-63
2023/01/25 01:16:25;;;;;;;11.88;7.60;;;;;;;;;;8335103;28;20041;-63
2023/01/25 01:20:26;;;;;;;10.50;7.72;;;;;;;;;;8335630;28;20020;-63
2023/01/25 01:24:26;;;;;;;10.52;7.80;;;;;;;;;;8331871;28;20025;-63
2023/01/25 01:28:30;;;;;;;18.17;8.18;;;;;;;;;;8331851;28;20029;-63
2023/01/25 01:32:30;;;;;;;11.93;8.35;;;;;;;;;;8331241;28;20157;-62
2023/01/25 01:36:31;;;;;;;10.52;7.45;;;;;;;;;;8331661;28;20032;-63
2023/01/25 01:40:31;;;;;;;14.70;7.90;;;;;;;;;;8335631;28;20040;-62
2023/01/25 01:44:44;;;;;;;13.27;9.35;;;;;;;;;;8333420;28;20171;-63
2023/01/25 01:48:45;;;;;;;14.73;8.50;;;;;;;;;;8331622;28;21004;-62
2023/01/25 01:52:45;;;;;;;10.73;7.93;;;;;;;;;;8333693;28;20021;-62
2023/01/25 01:56:57;;;;;;;17.77;8.10;;;;;;;;;;8333894;28;20041;-63
2023/01/25 02:00:57;;;;;;;27.10;8.25;;;;;;;;;;8332753;28;20033;-63
2023/01/25 02:04:59;;;;;;;16.92;8.50;;;;;;;;;;8334106;28;20128;-63
2023/01/25 02:09:00;;;;;;;14.27;8.25;;;;;;;;;;8331438;28;20033;-63
2023/01/25 02:13:00;;;;;;;21.95;9.65;;;;;;;;;;8331868;28;20036;-63
2023/01/25 02:17:02;;;;;;;30.58;9.35;;;;;;;;;;8333166;28;20041;-63
2023/01/25 02:21:02;;;;;;;14.45;8.90;;;;;;;;;;8332384;28;20515;-62
2023/01/25 02:25:04;;;;;;;17.17;8.80;;;;;;;;;;8332341;28;20067;-63
2023/01/25 02:29:05;;;;;;;14.13;9.13;;;;;;;;;;8333774;28;20283;-63
2023/01/25 02:33:06;;;;;;;21.17;9.50;;;;;;;;;;8333081;28;20045;-62
2023/01/25 02:37:07;;;;;;;155.27;13.05;;;;;;;;;;8332966;28;20090;-63
2023/01/25 02:41:14;;;;;;;39.03;9.10;;;;;;;;;;8332716;28;20021;-63
2023/01/25 02:45:17;;;;;;;22.45;8.68;;;;;;;;;;8331442;28;20036;-63
2023/01/25 02:49:18;;;;;;;53.08;10.45;;;;;;;;;;8332697;28;20140;-62
2023/01/25 02:53:18;;;;;;;16.88;9.23;;;;;;;;;;8332187;28;20036;-63
2023/01/25 02:57:18;;;;;;;22.27;8.88;;;;;;;;;;8331988;28;20238;-63
2023/01/25 03:01:19;;;;;;;107.93;11.50;;;;;;;;;;8331832;28;20155;-63
2023/01/25 03:05:19;;;;;;;62.40;10.75;;;;;;;;;;8330408;28;20017;-63
2023/01/25 03:09:19;;;;;;;41.65;10.25;;;;;;;;;;8332197;28;20083;-63
2023/01/25 03:13:20;;;;;;;47.28;10.10;;;;;;;;;;8333137;28;20459;-63
2023/01/25 03:17:20;;;;;;;97.40;12.45;;;;;;;;;;8331798;28;20037;-63
2023/01/25 03:21:21;;;;;;;69.93;11.13;;;;;;;;;;8330839;28;20082;-63
2023/01/25 03:30:08;;;;;;;169.68;13.38;;;;;;;;;;8326220;28;20028;-62
2023/01/25 03:34:08;;;;;;;34.65;9.75;;;;;;;;;;8328263;28;20094;-63
2023/01/25 03:38:08;;;;;;;161.17;12.30;;;;;;;;;;8329283;28;20594;-63
2023/01/25 03:42:08;;;;;;;79.65;10.98;;;;;;;;;;8328437;28;20286;-63
2023/01/25 03:46:09;;;;;;;42.60;9.57;;;;;;;;;;8321726;28;20067;-62
2023/01/25 03:50:09;;;;;;;60.47;9.40;;;;;;;;;;8327792;28;20021;-62
2023/01/25 03:54:09;;;;;;;41.63;8.82;;;;;;;;;;8328362;28;20025;-62
2023/01/25 03:58:10;;;;;;;13.00;8.10;;;;;;;;;;8330032;28;20219;-63
2023/01/25 04:02:11;;;;;;;12.63;8.93;;;;;;;;;;8328998;28;20480;-62
2023/01/25 04:06:11;;;;;;;27.67;8.88;;;;;;;;;;8330857;28;20056;-62
2023/01/25 04:10:12;;;;;;;12.73;8.07;;;;;;;;;;8328487;28;20040;-62
2023/01/25 04:14:12;;;;;;;35.63;9.13;;;;;;;;;;8329606;28;20267;-63
2023/01/25 04:18:12;;;;;;;41.47;9.05;;;;;;;;;;8330727;28;20033;-62
2023/01/25 04:22:13;;;;;;;25.80;9.27;;;;;;;;;;8329151;28;20693;-63
2023/01/25 04:26:13;;;;;;;11.70;7.53;;;;;;;;;;8329949;28;20028;-63
2023/01/25 04:30:13;;;;;;;12.50;8.25;;;;;;;;;;8328861;28;20035;-63
2023/01/25 04:34:14;;;;;;;11.48;8.07;;;;;;;;;;8328900;28;20505;-62
2023/01/25 04:38:14;;;;;;;15.87;8.80;;;;;;;;;;8329867;28;20033;-63
2023/01/25 04:42:14;;;;;;;31.85;9.02;;;;;;;;;;8329490;28;20286;-62
2023/01/25 04:46:14;;;;;;;13.80;8.63;;;;;;;;;;8328776;28;20048;-62
2023/01/25 04:50:15;;;;;;;22.92;8.77;;;;;;;;;;8329607;28;20279;-63
2023/01/25 04:54:15;;;;;;;13.35;8.25;;;;;;;;;;8328418;28;20547;-62
2023/01/25 04:58:15;;;;;;;12.77;8.60;;;;;;;;;;8329726;28;20029;-62
2023/01/25 05:02:15;;;;;;;19.08;8.93;;;;;;;;;;8328061;28;20461;-63
2023/01/25 05:06:16;;;;;;;13.43;8.48;;;;;;;;;;8329059;28;20055;-63
2023/01/25 05:10:16;;;;;;;20.35;9.15;;;;;;;;;;8328386;28;20820;-63
2023/01/25 05:14:16;;;;;;;14.88;8.60;;;;;;;;;;8328978;28;20097;-63
2023/01/25 05:18:16;;;;;;;15.77;9.50;;;;;;;;;;8329644;28;20046;-63
2023/01/25 05:22:19;;;;;;;15.18;9.98;;;;;;;;;;8328594;28;20100;-63
2023/01/25 05:30:38;;;;;;;13.63;9.55;;;;;;;;;;8325817;28;20083;-62
2023/01/25 05:34:39;;;;;;;12.52;8.88;;;;;;;;;;8329095;28;20920;-63
2023/01/25 05:38:39;;;;;;;12.85;8.13;;;;;;;;;;8327471;28;20033;-63
2023/01/25 05:42:39;;;;;;;8.95;6.85;;;;;;;;;;8323411;28;20021;-62
2023/01/25 05:46:39;;;;;;;11.35;7.00;;;;;;;;;;8328309;28;20136;-63
2023/01/25 05:50:39;;;;;;;11.57;7.38;;;;;;;;;;8326162;28;20291;-63
2023/01/25 05:54:40;;;;;;;9.55;7.35;;;;;;;;;;8327889;28;20530;-62
2023/01/25 05:58:40;;;;;;;9.30;6.22;;;;;;;;;;8328254;28;20061;-63
2023/01/25 06:02:40;;;;;;;12.10;7.35;;;;;;;;;;8327440;28;20471;-63
2023/01/25 06:06:40;;;;;;;11.63;8.10;;;;;;;;;;8333696;28;20035;-63
2023/01/25 06:10:40;;;;;;;16.33;8.25;;;;;;;;;;8332092;28;20376;-62
2023/01/25 06:14:41;;;;;;;14.40;7.97;;;;;;;;;;8327936;28;20033;-62
2023/01/25 06:18:41;;;;;;;21.92;9.18;;;;;;;;;;8330104;28;20033;-62
2023/01/25 06:22:41;;;;;;;34.65;9.15;;;;;;;;;;8331117;28;20025;-63
2023/01/25 06:26:42;;;;;;;32.40;9.18;;;;;;;;;;8330713;28;20071;-62
2023/01/25 06:30:42;;;;;;;31.90;10.40;;;;;;;;;;8327489;28;20045;-62
2023/01/25 06:34:42;;;;;;;87.60;11.45;;;;;;;;;;8330335;28;20059;-63
2023/01/25 06:38:42;;;;;;;130.68;13.13;;;;;;;;;;8330823;28;20029;-63
2023/01/25 06:42:44;;;;;;;25.23;8.90;;;;;;;;;;8330913;28;20966;-62
2023/01/25 06:46:44;;;;;;;32.40;9.65;;;;;;;;;;8331168;28;20032;-62
2023/01/25 06:50:44;;;;;;;29.00;9.10;;;;;;;;;;8331136;28;20106;-62
2023/01/25 06:54:44;;;;;;;57.60;9.82;;;;;;;;;;8328873;28;20231;-62
2023/01/25 06:58:45;;;;;;;347.47;18.77;;;;;;;;;;8329799;28;20064;-63
2023/01/25 07:02:45;;;;;;;264.35;16.63;;;;;;;;;;8325363;28;20272;-63
2023/01/25 07:06:45;;;;;;;46.63;10.05;;;;;;;;;;8328845;28;20486;-63
2023/01/25 07:10:51;;;;;;;56.75;11.10;;;;;;;;;;8331201;28;20558;-62
2023/01/25 07:14:52;;;;;;;171.07;12.52;;;;;;;;;;8328396;28;20122;-63
2023/01/25 07:18:52;;;;;;;394.25;20.08;;;;;;;;;;8331152;28;20041;-63
2023/01/25 07:22:52;;;;;;;344.45;19.85;;;;;;;;;;8329779;28;20126;-63
2023/01/25 07:26:53;;;;;;;175.10;13.55;;;;;;;;;;8329474;28;20036;-65
2023/01/25 07:30:53;;;;;;;317.08;16.65;;;;;;;;;;8326907;28;20049;-64
2023/01/25 07:34:53;;;;;;;96.07;9.48;;;;;;;;;;8330051;28;20194;-64
2023/01/25 07:38:54;;;;;;;167.10;11.73;;;;;;;;;;8327773;28;20649;-64
2023/01/25 07:42:54;;;;;;;208.13;12.77;;;;;;;;;;8329331;28;20266;-64
2023/01/25 07:46:54;;;;;;;262.05;14.70;;;;;;;;;;8323243;28;20146;-64
2023/01/25 07:51:11;;;;;;;205.13;12.57;;;;;;;;;;8325456;28;20045;-64
2023/01/25 07:55:11;;;;;;;226.73;13.35;;;;;;;;;;8324882;28;20090;-64
2023/01/25 07:59:13;;;;;;;94.68;10.10;;;;;;;;;;8322252;28;20020;-64
2023/01/25 08:03:14;;;;;;;263.90;14.30;;;;;;;;;;8324022;28;20114;-64
2023/01/25 08:07:14;;;;;;;352.13;16.38;;;;;;;;;;8327460;28;20082;-64
2023/01/25 08:11:19;;;;;;;184.48;12.63;;;;;;;;;;8327030;28;20120;-64
2023/01/25 08:15:19;;;;;;;640.40;24.52;;;;;;;;;;8329725;28;20283;-63
2023/01/25 08:19:20;;;;;;;221.13;13.50;;;;;;;;;;8328794;28;20029;-64
2023/01/25 08:23:21;;;;;;;60.53;9.55;;;;;;;;;;8318567;28;20021;-64
2023/01/25 08:27:21;;;;;;;279.80;14.95;;;;;;;;;;8327696;28;20021;-64
2023/01/25 08:31:23;;;;;;;269.77;14.75;;;;;;;;;;8322882;28;20297;-64
2023/01/25 08:35:24;;;;;;;314.23;15.90;;;;;;;;;;8327070;28;20171;-64
2023/01/25 08:39:24;;;;;;;152.27;12.00;;;;;;;;;;8327389;28;20068;-64
2023/01/25 08:43:24;;;;;;;476.98;19.73;;;;;;;;;;8327947;28;20037;-64
2023/01/25 08:47:25;;;;;;;440.65;20.88;;;;;;;;;;8328968;28;20469;-64
2023/01/25 08:51:26;;;;;;;235.23;14.63;;;;;;;;;;8330866;28;20568;-64
2023/01/25 08:55:26;;;;;;;226.25;14.90;;;;;;;;;;8327425;28;20029;-64
2023/01/25 08:59:26;;;;;;;386.20;18.50;;;;;;;;;;8328459;28;20036;-64
2023/01/25 09:03:27;;;;;;;145.85;10.88;;;;;;;;;;8325867;28;20036;-64
2023/01/25 09:07:27;;;;;;;244.20;13.98;;;;;;;;;;8326642;28;20777;-64
2023/01/25 09:11:27;;;;;;;366.15;16.67;;;;;;;;;;8327910;28;20419;-63
2023/01/25 09:15:27;;;;;;;131.65;11.10;;;;;;;;;;8326953;28;20922;-64
2023/01/25 09:19:28;;;;;;;278.17;14.40;;;;;;;;;;8327789;28;20919;-64
2023/01/25 09:23:28;;;;;;;334.98;17.88;;;;;;;;;;8328606;28;20016;-64
2023/01/25 09:27:28;;;;;;;75.97;9.90;;;;;;;;;;8327187;28;20021;-64
2023/01/25 09:31:28;;;;;;;345.02;15.98;;;;;;;;;;8326375;28;20041;-64
2023/01/25 09:35:30;;;;;;;222.95;12.88;;;;;;;;;;8329617;28;20488;-64
2023/01/25 09:39:30;;;;;;;139.57;12.05;;;;;;;;;;8333650;28;20029;-64
2023/01/25 09:43:39;;;;;;;413.40;17.98;;;;;;;;;;8334058;28;20033;-64
2023/01/25 09:47:44;;;;;;;316.80;15.18;;;;;;;;;;8332997;28;20094;-63
2023/01/25 09:52:03;;;;;;;331.90;17.17;;;;;;;;;;8332766;28;22145;-64
2023/01/25 09:56:09;;;;;;;143.05;10.77;;;;;;;;;;8332740;28;21015;-64
2023/01/25 10:00:20;;;;;;;179.52;11.20;;;;;;;;;;8332758;28;20604;-64
2023/01/25 10:04:23;;;;;;;160.20;10.98;;;;;;;;;;8333945;28;20021;-64
2023/01/25 10:08:24;;;;;;;252.85;14.20;;;;;;;;;;8332963;28;20594;-64
2023/01/25 10:12:27;;;;;;;91.20;10.27;;;;;;;;;;8330766;28;20052;-64
2023/01/25 10:16:45;;;;;;;139.05;10.70;;;;;;;;;;8330622;28;20470;-64
2023/01/25 10:20:56;;;;;;;100.53;9.15;;;;;;;;;;8329882;28;20034;-64
2023/01/25 10:25:18;;;;;;;49.90;8.82;;;;;;;;;;8330867;28;20077;-64
2023/01/25 10:29:19;;;;;;;105.85;9.75;;;;;;;;;;8328773;28;20036;-64
2023/01/25 10:33:20;;;;;;;71.63;9.25;;;;;;;;;;8333331;28;20099;-64
2023/01/25 10:37:21;;;;;;;124.80;9.98;;;;;;;;;;8331591;28;20094;-64
2023/01/25 10:41:28;;;;;;;397.08;16.48;;;;;;;;;;8334035;28;20040;-64
2023/01/25 10:45:29;;;;;;;185.80;11.27;;;;;;;;;;8331271;28;21174;-64
2023/01/25 10:49:38;;;;;;;172.00;11.17;;;;;;;;;;8333559;28;20538;-64
2023/01/25 10:53:38;;;;;;;139.48;10.13;;;;;;;;;;8331606;28;20326;-64
2023/01/25 10:57:43;;;;;;;31.40;8.98;;;;;;;;;;8324073;28;20071;-64
2023/01/25 11:01:44;;;;;;;82.20;9.90;;;;;;;;;;8332554;28;20069;-64
2023/01/25 11:05:51;;;;;;;106.15;9.65;;;;;;;;;;8331960;28;20032;-64
2023/01/25 11:09:52;;;;;;;164.45;11.10;;;;;;;;;;8333214;28;20029;-64
2023/01/25 11:13:54;;;;;;;202.30;11.77;;;;;;;;;;8331697;28;20028;-64
2023/01/25 11:18:04;;;;;;;235.50;13.07;;;;;;;;;;8330462;28;20748;-64
2023/01/25 11:22:18;;;;;;;124.00;10.23;;;;;;;;;;8327341;28;20156;-64
2023/01/25 11:26:18;;;;;;;;;;;;;;;;;;8329960;28;20043;-64
2023/01/25 11:30:19;;;;;;;219.40;11.43;;;;;;;;;;8327987;28;20276;-64
2023/01/25 11:34:20;;;;;;;129.57;9.48;;;;;;;;;;8328677;28;20071;-64
2023/01/25 11:38:22;;;;;;;221.68;11.63;;;;;;;;;;8331007;28;20029;-64
2023/01/25 11:42:25;;;;;;;150.45;10.57;;;;;;;;;;8327961;28;20075;-64
2023/01/25 11:46:49;;;;;;;82.50;10.50;;;;;;;;;;8327500;28;20044;-64
2023/01/25 11:50:55;;;;;;;393.35;16.65;;;;;;;;;;8329646;28;20135;-64
2023/01/25 11:55:08;;;;;;;190.32;13.07;;;;;;;;;;8327522;28;20033;-64
2023/01/25 11:59:14;;;;;;;93.15;9.07;;;;;;;;;;8327324;28;20630;-64
2023/01/25 12:03:35;;;;;;;97.22;9.52;;;;;;;;;;8328426;28;20029;-64
2023/01/25 12:07:43;;;;;;;155.60;11.38;;;;;;;;;;8329462;28;20025;-64
2023/01/25 12:12:02;;;;;;;146.00;10.60;;;;;;;;;;8329961;28;20029;-64
2023/01/25 12:16:18;;;;;;;253.52;13.02;;;;;;;;;;8328117;28;20072;-64
2023/01/25 12:20:37;;;;;;;89.93;10.02;;;;;;;;;;8329702;28;20053;-64
2023/01/25 12:24:43;;;;;;;125.25;10.73;;;;;;;;;;8327691;28;20613;-64
2023/01/25 12:28:48;;;;;;;137.98;10.98;;;;;;;;;;8329498;28;20032;-64
2023/01/25 12:32:58;;;;;;;43.85;7.85;;;;;;;;;;8325915;28;20591;-64
2023/01/25 12:37:03;;;;;;;102.35;9.50;;;;;;;;;;8328322;28;20029;-64
2023/01/25 12:41:24;;;;;;;140.18;10.32;;;;;;;;;;8328500;28;20036;-64
2023/01/25 12:45:27;;;;;;;299.05;15.50;;;;;;;;;;8327867;28;20040;-64
2023/01/25 12:49:30;;;;;;;172.18;11.75;;;;;;;;;;8328558;28;20090;-64
2023/01/25 12:53:34;;;;;;;294.20;14.30;;;;;;;;;;8326595;28;20120;-64
2023/01/25 12:57:34;;;;;;;;;;;;;;;;;;8329265;28;20055;-64
2023/01/25 13:01:39;;;;;;;140.45;10.52;;;;;;;;;;8328075;28;19956;-64
2023/01/25 13:05:40;;;;;;;206.73;12.45;;;;;;;;;;8327279;28;20104;-64
2023/01/25 13:09:43;;;;;;;115.50;10.27;;;;;;;;;;8330381;28;20588;-63
2023/01/25 13:13:43;;;;;;;101.10;10.25;;;;;;;;;;8336655;28;20025;-64
2023/01/25 13:17:43;;;;;;;187.65;12.18;;;;;;;;;;8331371;28;20033;-64
2023/01/25 13:21:44;;;;;;;221.95;12.27;;;;;;;;;;8335467;28;20024;-64
2023/01/25 13:25:44;;;;;;;97.18;9.20;;;;;;;;;;8335036;28;20890;-64
2023/01/25 13:29:45;;;;;;;272.92;14.38;;;;;;;;;;8332842;28;20057;-64
2023/01/25 13:33:46;;;;;;;304.27;14.20;;;;;;;;;;8334825;28;20114;-64
2023/01/25 13:37:55;;;;;;;467.80;18.95;;;;;;;;;;8331747;28;20037;-64
2023/01/25 13:42:17;;;;;;;329.95;15.23;;;;;;;;;;8332043;28;20469;-64
2023/01/25 13:46:21;;;;;;;275.75;13.95;;;;;;;;;;8331242;28;20349;-64
2023/01/25 13:50:22;;;;;;;154.30;12.07;;;;;;;;;;8328238;28;20025;-64
2023/01/25 13:54:22;;;;;;;318.90;15.27;;;;;;;;;;8332279;28;20163;-64
2023/01/25 13:58:33;;;;;;;206.25;13.85;;;;;;;;;;8330669;28;20037;-64
2023/01/25 14:02:34;;;;;;;264.55;13.52;;;;;;;;;;8329652;28;20037;-64
2023/01/25 14:06:37;;;;;;;51.85;8.10;;;;;;;;;;8331516;28;20035;-64
2023/01/25 14:10:37;;;;;;;292.67;14.73;;;;;;;;;;8331402;28;20016;-64
2023/01/25 14:14:37;;;;;;;199.77;11.63;;;;;;;;;;8329412;28;21016;-64
2023/01/25 14:18:37;;;;;;;136.95;11.18;;;;;;;;;;8330121;28;20495;-64
2023/01/25 14:22:38;;;;;;;557.97;21.40;;;;;;;;;;8328792;28;20496;-65
2023/01/25 14:26:40;;;;;;;295.45;14.05;;;;;;;;;;8330711;28;20900;-65
2023/01/25 14:30:41;;;;;;;530.83;19.38;;;;;;;;;;8328254;28;20144;-64
2023/01/25 14:34:41;;;;;;;214.30;12.70;;;;;;;;;;8322982;28;20029;-64
2023/01/25 14:38:42;;;;;;;135.73;10.02;;;;;;;;;;8328485;28;20182;-64
2023/01/25 14:42:42;;;;;;;181.10;10.77;;;;;;;;;;8320793;28;20023;-64
2023/01/25 14:46:42;;;;;;;72.30;8.57;;;;;;;;;;8326432;28;20082;-64
2023/01/25 14:50:42;;;;;;;133.93;9.75;;;;;;;;;;8329492;28;20029;-64
2023/01/25 14:54:51;;;;;;;88.70;8.85;;;;;;;;;;8331170;28;20064;-64
2023/01/25 14:58:51;;;;;;;115.28;9.60;;;;;;;;;;8329847;28;20087;-64
2023/01/25 15:02:56;;;;;;;286.33;13.95;;;;;;;;;;8330390;28;20056;-64
2023/01/25 15:06:56;;;;;;;60.65;7.82;;;;;;;;;;8330020;28;20490;-64
2023/01/25 15:11:33;;;;;;;229.93;12.00;;;;;;;;;;8331319;28;20035;-64
2023/01/25 15:15:18;;;;;;;96.95;9.63;;;;;;;;;;8330650;28;20060;-64
2023/01/25 15:19:23;;;;;;;302.63;14.65;;;;;;;;;;8330992;28;20036;-64
2023/01/25 15:23:28;;;;;;;117.32;9.20;;;;;;;;;;8331806;28;20013;-64
2023/01/25 15:27:28;;;;;;;141.48;9.88;;;;;;;;;;8331591;28;20021;-64
2023/01/25 15:31:33;;;;;;;139.93;9.48;;;;;;;;;;8327622;28;20037;-64
2023/01/25 15:35:33;;;;;;;132.13;9.07;;;;;;;;;;8332104;28;20036;-64
2023/01/25 15:39:33;;;;;;;325.58;13.65;;;;;;;;;;8329550;28;20082;-64
2023/01/25 15:43:34;;;;;;;59.60;7.38;;;;;;;;;;8330540;28;20017;-64
2023/01/25 15:47:34;;;;;;;62.05;8.23;;;;;;;;;;8330354;28;20037;-64
2023/01/25 15:51:35;;;;;;;160.70;9.93;;;;;;;;;;8330225;28;20040;-64
2023/01/25 15:55:35;;;;;;;208.32;11.15;;;;;;;;;;8330421;28;20135;-64
2023/01/25 15:59:35;;;;;;;155.00;9.57;;;;;;;;;;8330146;28;20272;-64
2023/01/25 16:03:35;;;;;;;54.35;7.03;;;;;;;;;;8328302;28;20033;-64
2023/01/25 16:07:36;;;;;;;55.45;8.25;;;;;;;;;;8329013;28;20036;-64
2023/01/25 16:11:36;;;;;;;289.10;14.90;;;;;;;;;;8330578;28;20444;-64
2023/01/25 16:15:37;;;;;;;78.68;7.78;;;;;;;;;;8328173;28;20036;-64
2023/01/25 16:19:37;;;;;;;133.40;9.70;;;;;;;;;;8330681;28;20025;-64
2023/01/25 16:23:38;;;;;;;154.93;9.15;;;;;;;;;;8329643;28;20024;-64
2023/01/25 16:27:38;;;;;;;167.27;10.35;;;;;;;;;;8326922;28;20032;-64
2023/01/25 16:31:38;;;;;;;210.40;11.57;;;;;;;;;;8328460;28;20477;-64
2023/01/25 16:35:38;;;;;;;169.20;10.40;;;;;;;;;;8328531;28;20040;-64
2023/01/25 16:39:38;;;;;;;194.50;11.18;;;;;;;;;;8326575;28;20043;-64
2023/01/25 16:43:40;;;;;;;261.58;13.75;;;;;;;;;;8328739;28;20016;-64
2023/01/25 16:47:40;;;;;;;115.97;11.25;;;;;;;;;;8327155;28;20040;-64
2023/01/25 16:51:40;;;;;;;49.42;8.30;;;;;;;;;;8329442;28;20108;-64
2023/01/25 16:55:40;;;;;;;69.28;7.53;;;;;;;;;;8330243;28;20052;-64
2023/01/25 16:59:40;;;;;;;91.20;9.10;;;;;;;;;;8327506;28;20428;-64
2023/01/25 17:03:41;;;;;;;101.68;9.10;;;;;;;;;;8330864;28;20551;-64
2023/01/25 17:07:41;;;;;;;147.15;10.90;;;;;;;;;;8326499;28;20616;-64
2023/01/25 17:11:42;;;;;;;118.18;9.77;;;;;;;;;;8325281;28;20029;-63
2023/01/25 17:15:42;;;;;;;250.95;15.55;;;;;;;;;;8325146;28;20037;-63
2023/01/25 17:19:42;;;;;;;171.43;12.05;;;;;;;;;;8327741;28;20031;-63
2023/01/25 17:23:42;;;;;;;82.93;8.57;;;;;;;;;;8328486;28;20390;-63
2023/01/25 17:27:42;;;;;;;181.55;12.43;;;;;;;;;;8328053;28;20106;-63
2023/01/25 17:31:43;;;;;;;59.85;8.13;;;;;;;;;;8324260;28;20871;-64
2023/01/25 17:35:43;;;;;;;172.95;11.10;;;;;;;;;;8322577;28;20032;-63
2023/01/25 17:39:43;;;;;;;348.13;14.80;;;;;;;;;;8325969;28;20029;-63
2023/01/25 17:43:44;;;;;;;184.02;11.93;;;;;;;;;;8321382;28;20029;-63
2023/01/25 17:47:44;;;;;;;178.57;10.95;;;;;;;;;;8321946;28;20114;-63
2023/01/25 17:51:44;;;;;;;211.63;11.35;;;;;;;;;;8321162;28;20442;-64
2023/01/25 17:55:44;;;;;;;137.05;8.98;;;;;;;;;;8323196;28;20972;-63
2023/01/25 17:59:45;;;;;;;331.70;14.48;;;;;;;;;;8331170;28;20067;-63
2023/01/25 18:03:46;;;;;;;192.80;11.23;;;;;;;;;;8320575;28;20864;-63
2023/01/25 18:07:46;;;;;;;295.52;16.80;;;;;;;;;;8328646;28;20035;-63
2023/01/25 18:11:47;;;;;;;174.27;11.35;;;;;;;;;;8327785;28;20064;-63
2023/01/25 18:15:53;;;;;;;113.20;10.40;;;;;;;;;;8330160;28;20333;-63
2023/01/25 18:19:53;;;;;;;140.77;10.82;;;;;;;;;;8328260;28;20079;-63
2023/01/25 18:24:02;;;;;;;185.00;11.52;;;;;;;;;;8329355;28;20429;-63
2023/01/25 18:28:02;;;;;;;328.48;16.45;;;;;;;;;;8326299;28;20911;-63
2023/01/25 18:32:02;;;;;;;169.02;11.13;;;;;;;;;;8326639;28;20405;-63
2023/01/25 18:36:04;;;;;;;174.85;10.75;;;;;;;;;;8329233;28;20362;-63
2023/01/25 18:40:04;;;;;;;119.50;9.02;;;;;;;;;;8329405;28;20073;-63
2023/01/25 18:44:05;;;;;;;108.70;8.73;;;;;;;;;;8325113;28;20025;-63
2023/01/25 18:48:11;;;;;;;136.57;9.35;;;;;;;;;;8327522;28;20280;-63
2023/01/25 18:52:12;;;;;;;125.65;10.05;;;;;;;;;;8323772;28;20131;-63
2023/01/25 18:56:13;;;;;;;183.35;12.50;;;;;;;;;;8322095;28;20033;-63
2023/01/25 19:00:15;;;;;;;79.45;8.30;;;;;;;;;;8305022;28;20028;-63
2023/01/25 19:04:16;;;;;;;107.00;9.45;;;;;;;;;;8309591;28;20029;-63
2023/01/25 19:08:16;;;;;;;128.10;9.98;;;;;;;;;;8320926;28;20112;-63
2023/01/25 19:12:16;;;;;;;326.05;15.35;;;;;;;;;;8318483;28;20029;-63
2023/01/25 19:16:22;;;;;;;252.85;14.40;;;;;;;;;;8322080;28;20028;-63
2023/01/25 19:20:23;;;;;;;192.90;10.80;;;;;;;;;;8320296;28;20021;-63
2023/01/25 19:24:23;;;;;;;77.57;8.00;;;;;;;;;;8318931;28;20051;-63
2023/01/25 19:28:23;;;;;;;79.95;8.05;;;;;;;;;;8316517;28;20858;-63
2023/01/25 19:32:24;;;;;;;260.10;12.48;;;;;;;;;;8317364;28;20556;-64
2023/01/25 19:36:24;;;;;;;122.38;8.55;;;;;;;;;;8320386;28;20033;-63
2023/01/25 19:40:24;;;;;;;245.27;12.80;;;;;;;;;;8327944;28;20025;-63
2023/01/25 19:44:25;;;;;;;121.03;10.07;;;;;;;;;;8320006;28;20032;-63
2023/01/25 19:48:31;;;;;;;91.97;8.68;;;;;;;;;;8318303;28;20317;-63
2023/01/25 19:52:31;;;;;;;258.38;13.25;;;;;;;;;;8320076;28;20497;-63
2023/01/25 19:56:34;;;;;;;257.50;12.75;;;;;;;;;;8310291;28;20063;-62
2023/01/25 20:00:34;;;;;;;185.63;12.02;;;;;;;;;;8316992;28;20445;-63
2023/01/25 20:04:34;;;;;;;242.45;15.88;;;;;;;;;;8315765;28;20025;-63
2023/01/25 20:08:36;;;;;;;211.88;14.25;;;;;;;;;;8317059;28;20033;-63
2023/01/25 20:12:36;;;;;;;192.55;12.80;;;;;;;;;;8318486;28;20020;-63
2023/01/25 20:16:36;;;;;;;145.15;10.38;;;;;;;;;;8312752;28;20659;-63
2023/01/25 20:20:37;;;;;;;51.08;8.07;;;;;;;;;;8313674;28;20092;-63
2023/01/25 20:24:37;;;;;;;159.68;10.63;;;;;;;;;;8315869;28;20020;-64
2023/01/25 20:28:37;;;;;;;41.80;8.02;;;;;;;;;;8308099;28;20504;-63
2023/01/25 20:32:37;;;;;;;58.28;7.38;;;;;;;;;;8311743;28;20186;-63
2023/01/25 20:36:37;;;;;;;24.40;7.47;;;;;;;;;;8310264;28;20044;-63
2023/01/25 20:40:37;;;;;;;32.30;6.75;;;;;;;;;;8313468;28;20519;-64
2023/01/25 20:44:39;;;;;;;20.02;5.95;;;;;;;;;;8315741;28;20132;-63
2023/01/25 20:48:39;;;;;;;41.15;6.63;;;;;;;;;;8314497;28;20065;-63
2023/01/25 20:52:39;;;;;;;21.05;6.43;;;;;;;;;;8315728;28;20145;-63
2023/01/25 20:56:39;;;;;;;53.72;6.45;;;;;;;;;;8316768;28;20033;-63
2023/01/25 21:00:40;;;;;;;12.10;6.07;;;;;;;;;;8313358;28;21597;-63
2023/01/25 21:04:40;;;;;;;49.05;6.93;;;;;;;;;;8316844;28;20021;-63
2023/01/25 21:08:40;;;;;;;9.35;5.70;;;;;;;;;;8312958;28;20297;-63
2023/01/25 21:12:40;;;;;;;8.02;5.05;;;;;;;;;;8312538;28;20079;-63
2023/01/25 21:16:40;;;;;;;22.42;6.47;;;;;;;;;;8314981;28;20413;-63
2023/01/25 21:20:41;;;;;;;9.35;5.43;;;;;;;;;;8317187;28;20025;-63
2023/01/25 21:24:41;;;;;;;8.52;5.43;;;;;;;;;;8314987;28;20028;-63
2023/01/25 21:28:41;;;;;;;10.82;5.60;;;;;;;;;;8318133;28;20029;-63
2023/01/25 21:32:42;;;;;;;8.65;4.70;;;;;;;;;;8318575;28;20526;-63
2023/01/25 21:36:42;;;;;;;8.55;4.72;;;;;;;;;;8325518;28;20025;-64
2023/01/25 21:40:42;;;;;;;18.73;6.10;;;;;;;;;;8322693;28;20124;-63
2023/01/25 21:53:21;;;;;;;17.00;5.78;;;;;;;;;;8320525;28;20347;-63
2023/01/25 21:57:22;;;;;;;14.27;5.85;;;;;;;;;;8320585;28;20370;-63
2023/01/25 22:01:22;;;;;;;19.25;5.47;;;;;;;;;;8325037;28;20033;-63
2023/01/25 22:05:22;;;;;;;12.30;6.03;;;;;;;;;;8329955;28;20028;-63
2023/01/25 22:09:22;;;;;;;9.18;5.40;;;;;;;;;;8332027;28;20035;-63
2023/01/25 22:13:23;;;;;;;15.00;5.15;;;;;;;;;;8331130;28;20044;-63
2023/01/25 22:17:24;;;;;;;25.02;5.70;;;;;;;;;;8329255;28;20037;-64
2023/01/25 22:21:27;;;;;;;10.55;4.90;;;;;;;;;;8332058;28;20131;-63
2023/01/25 22:25:27;;;;;;;13.57;4.78;;;;;;;;;;8330220;28;20049;-64
2023/01/25 22:29:28;;;;;;;10.45;5.72;;;;;;;;;;8329310;28;20029;-64
2023/01/25 22:33:28;;;;;;;8.93;5.07;;;;;;;;;;8329765;28;20039;-63
2023/01/25 22:37:29;;;;;;;9.40;5.40;;;;;;;;;;8329119;28;20025;-63
2023/01/25 22:41:30;;;;;;;28.98;6.10;;;;;;;;;;8323587;28;20056;-63
2023/01/25 22:45:30;;;;;;;10.40;5.00;;;;;;;;;;8325870;28;20037;-63
2023/01/25 22:49:30;;;;;;;7.20;4.25;;;;;;;;;;8326687;28;20422;-63
2023/01/25 22:53:31;;;;;;;7.25;4.07;;;;;;;;;;8324317;28;20810;-63
2023/01/25 22:57:31;;;;;;;8.13;4.80;;;;;;;;;;8326645;28;20543;-63
2023/01/25 23:01:33;;;;;;;21.75;5.50;;;;;;;;;;8324417;28;20033;-63
2023/01/25 23:05:33;;;;;;;9.25;4.88;;;;;;;;;;8325200;28;20375;-63
2023/01/25 23:09:33;;;;;;;7.55;4.35;;;;;;;;;;8323751;28;20404;-63
2023/01/25 23:13:35;;;;;;;8.82;4.38;;;;;;;;;;8326710;28;20035;-63
2023/01/25 23:21:54;;;;;;;13.20;4.82;;;;;;;;;;8321118;28;20501;-63
2023/01/25 23:25:56;;;;;;;11.60;5.35;;;;;;;;;;8323134;28;20021;-63
2023/01/25 23:29:57;;;;;;;7.03;4.72;;;;;;;;;;8322247;28;20033;-63
2023/01/25 23:33:58;;;;;;;7.53;4.95;;;;;;;;;;8321492;28;20635;-63
2023/01/25 23:37:58;;;;;;;7.80;4.22;;;;;;;;;;8323804;28;20564;-62
2023/01/25 23:41:58;;;;;;;9.80;4.88;;;;;;;;;;8324963;28;20053;-63
2023/01/25 23:45:58;;;;;;;9.05;4.43;;;;;;;;;;8321596;28;20036;-63
2023/01/25 23:49:58;;;;;;;12.85;5.88;;;;;;;;;;8322075;28;20458;-63